Time;durP1;ratioP1;P1;durP2;ratioP2;P2;SDS_P1;SDS_P2;PMS_P1;PMS_P2;Temp;Humidity;BMP_temperature;BMP_pressure;BME280_temperature;BME280_humidity;BME280_pressure;Samples;Min_cycle;Max_cycle;Signal;HPM_P1;HPM_P2
2021/12/19 00:01:01;;;;;;;;;43.75;33.00;;;;;7.40;71.72;102704.13;5097773;27;67752;-63
2021/12/19 00:11:05;;;;;;;;;41.00;32.00;;;;;7.38;71.87;102692.88;5098611;27;45311;-62
2021/12/19 00:13:31;;;;;;;;;29.25;24.75;;;;;7.36;71.81;102696.50;5098490;27;45600;-62
2021/12/19 00:15:56;;;;;;;;;31.75;23.75;;;;;7.35;71.73;102690.38;5097202;27;72475;-62
2021/12/19 00:18:22;;;;;;;;;37.50;26.50;;;;;7.36;71.79;102701.72;5079940;27;45279;-61
2021/12/19 00:20:47;;;;;;;;;31.00;25.25;;;;;7.35;71.89;102692.16;5098142;27;45734;-62
2021/12/19 00:23:12;;;;;;;;;33.00;23.00;;;;;7.33;71.81;102679.13;5098003;27;51569;-61
2021/12/19 00:25:38;;;;;;;;;32.25;26.75;;;;;7.35;71.92;102676.47;5097618;27;47633;-61
2021/12/19 00:28:04;;;;;;;;;25.00;20.50;;;;;7.36;71.82;102686.03;5079953;27;45456;-62
2021/12/19 00:30:29;;;;;;;;;28.00;25.50;;;;;7.35;71.86;102684.31;5080039;27;45494;-62
2021/12/19 00:32:54;;;;;;;;;35.00;25.75;;;;;7.34;71.98;102683.47;5097641;27;56222;-61
2021/12/19 00:35:20;;;;;;;;;29.00;25.00;;;;;7.34;71.98;102680.00;5077685;27;71904;-62
2021/12/19 00:37:45;;;;;;;;;31.00;25.50;;;;;7.33;71.98;102675.69;5098178;27;45312;-62
2021/12/19 00:40:11;;;;;;;;;30.00;21.00;;;;;7.33;72.13;102673.91;5097263;27;64333;-63
2021/12/19 00:42:36;;;;;;;;;27.75;25.50;;;;;7.33;71.92;102673.06;5097852;27;45319;-61
2021/12/19 00:45:12;;;;;;;;;26.75;21.00;;;;;7.33;72.06;102673.91;5078767;27;46116;-62
2021/12/19 00:47:38;;;;;;;;;29.00;23.25;;;;;7.33;72.06;102670.47;5097645;27;45256;-63
2021/12/19 00:50:04;;;;;;;;;26.00;20.00;;;;;7.33;72.13;102667.84;5079092;27;57637;-63
2021/12/19 00:52:29;;;;;;;;;26.50;19.75;;;;;7.31;72.04;102662.66;5097578;27;45528;-63
2021/12/19 00:54:54;;;;;;;;;36.00;24.75;;;;;7.31;72.26;102662.66;5096638;27;69296;-62
2021/12/19 00:57:20;;;;;;;;;27.75;21.00;;;;;7.31;72.17;102659.22;5078529;27;68753;-62
2021/12/19 00:59:45;;;;;;;;;26.25;20.75;;;;;7.31;72.24;102662.66;5097045;27;61782;-62
2021/12/19 01:02:10;;;;;;;;;28.25;20.75;;;;;7.31;72.20;102659.22;5096891;27;62808;-62
2021/12/19 01:04:36;;;;;;;;;27.00;20.00;;;;;7.31;72.36;102656.59;5097016;27;60432;-62
2021/12/19 01:07:02;;;;;;;;;33.25;22.75;;;;;7.30;72.25;102658.34;5097010;27;61403;-63
2021/12/19 01:09:27;;;;;;;;;27.75;21.75;;;;;7.31;72.31;102660.03;5097653;27;45390;-62
2021/12/19 01:11:53;;;;;;;;;26.50;18.00;;;;;7.31;72.53;102653.97;5078663;27;61826;-63
2021/12/19 01:14:18;;;;;;;;;22.25;20.00;;;;;7.30;72.40;102660.13;5096752;27;65329;-62
2021/12/19 01:16:44;;;;;;;;;23.00;19.75;;;;;7.31;72.42;102659.22;5062067;27;45383;-62
2021/12/19 01:19:09;;;;;;;;;21.00;17.75;;;;;7.31;72.45;102659.22;5078567;27;58795;-62
2021/12/19 01:21:34;;;;;;;;;27.25;19.50;;;;;7.30;72.58;102660.97;5096683;27;63485;-61
2021/12/19 01:24:00;;;;;;;;;24.25;20.25;;;;;7.30;72.37;102655.72;5096188;27;71239;-63
2021/12/19 01:26:25;;;;;;;;;20.75;17.75;;;;;7.30;72.45;102660.97;5077957;27;68175;-62
2021/12/19 01:28:50;;;;;;;;;33.00;19.25;;;;;7.30;72.51;102655.72;5096614;27;59150;-63
2021/12/19 01:31:16;;;;;;;;;27.25;22.25;;;;;7.29;72.47;102664.47;5096566;27;61856;-63
2021/12/19 01:33:41;;;;;;;;;24.25;17.75;;;;;7.28;72.46;102655.81;5097182;27;46205;-62
2021/12/19 01:36:07;;;;;;;;;30.25;20.25;;;;;7.30;72.41;102660.97;5078961;27;45451;-63
2021/12/19 01:38:32;;;;;;;;;25.25;19.00;;;;;7.29;72.58;102659.25;5097252;27;45803;-63
2021/12/19 01:40:58;;;;;;;;;21.25;17.00;;;;;7.31;72.54;102664.44;5097374;27;45369;-62
2021/12/19 01:43:26;;;;;;;;;20.50;17.50;;;;;7.29;72.58;102659.25;5078104;27;65831;-62
2021/12/19 01:45:52;;;;;;;;;29.75;19.75;;;;;7.30;72.49;102657.50;5096439;27;45267;-62
2021/12/19 01:48:18;;;;;;;;;26.00;19.50;;;;;7.31;72.63;102656.59;5096980;27;45399;-63
2021/12/19 01:50:43;;;;;;;;;27.00;16.00;;;;;7.30;72.60;102660.97;5062076;27;45546;-63
2021/12/19 01:53:13;;;;;;;;;16.75;15.75;;;;;7.28;72.60;102655.81;5096091;27;67684;-62
2021/12/19 01:55:39;;;;;;;;;18.75;15.75;;;;;7.26;72.65;102649.78;5097077;27;45867;-62
2021/12/19 01:58:05;;;;;;;;;25.00;17.75;;;;;7.27;72.69;102650.63;5078860;27;45228;-62
2021/12/19 02:00:33;;;;;;;;;24.50;16.00;;;;;7.26;72.74;102654.16;5096524;27;53095;-63
2021/12/19 02:03:00;;;;;;;;;20.00;13.50;;;;;7.24;72.85;102649.00;5096982;27;45616;-62
2021/12/19 02:05:26;;;;;;;;;22.75;14.50;;;;;7.25;72.85;102647.22;5078588;27;45364;-63
2021/12/19 02:07:51;;;;;;;;;22.75;20.25;;;;;7.25;72.86;102644.59;5096702;27;45343;-61
2021/12/19 02:10:18;;;;;;;;;22.25;16.50;;;;;7.24;73.05;102643.75;5096839;27;45526;-62
2021/12/19 02:12:45;;;;;;;;;30.50;19.50;;;;;7.24;72.82;102632.44;5078498;27;46280;-63
2021/12/19 02:15:14;;;;;;;;;21.25;16.75;;;;;7.25;72.87;102634.13;5078705;27;45409;-61
2021/12/19 02:17:39;;;;;;;;;26.25;14.00;;;;;7.26;72.98;102635.84;5078376;27;45383;-63
2021/12/19 02:20:09;;;;;;;;;20.75;17.50;;;;;7.26;72.88;102641.94;5095970;27;59350;-63
2021/12/19 02:22:35;;;;;;;;;22.50;18.25;;;;;7.26;72.90;102630.63;5096528;27;46784;-63
2021/12/19 02:25:00;;;;;;;;;26.00;15.25;;;;;7.26;72.83;102628.88;5095400;27;70515;-63
2021/12/19 02:27:28;;;;;;;;;19.25;16.25;;;;;7.26;72.77;102628.88;5095909;27;61128;-63
2021/12/19 02:29:54;;;;;;;;;19.25;17.00;;;;;7.25;72.76;102621.94;5096554;27;45393;-62
2021/12/19 02:32:20;;;;;;;;;23.75;17.00;;;;;7.25;72.69;102619.31;5078163;27;47752;-62
2021/12/19 02:34:48;;;;;;;;;26.50;19.00;;;;;7.25;72.52;102621.94;5078143;27;48959;-61
2021/12/19 02:37:57;;;;;;;;;24.75;18.00;;;;;7.24;72.67;102612.38;5096566;27;45532;-62
2021/12/19 02:48:12;;;;;;;;;18.75;16.50;;;;;7.26;72.31;102613.19;5096545;27;45443;-63
2021/12/19 02:50:47;;;;;;;;;24.25;18.75;;;;;7.24;72.73;102608.91;5081218;27;45413;-63
2021/12/19 02:53:13;;;;;;;;;23.75;17.50;;;;;7.23;72.71;102601.97;5096301;27;46430;-62
2021/12/19 02:55:39;;;;;;;;;21.50;16.50;;;;;7.24;72.64;102607.16;5096108;27;45242;-62
2021/12/19 02:58:04;;;;;;;;;21.50;17.00;;;;;7.23;72.68;102597.59;5096977;27;45326;-62
2021/12/19 03:00:30;;;;;;;;;24.00;18.75;;;;;7.23;72.67;102602.84;5098866;27;64199;-62
2021/12/19 03:02:55;;;;;;;;;22.00;19.25;;;;;7.21;72.54;102596.81;5098790;27;68136;-63
2021/12/19 03:05:21;;;;;;;;;20.00;15.25;;;;;7.21;72.79;102596.81;5099553;27;45304;-61
2021/12/19 03:07:49;;;;;;;;;24.50;16.50;;;;;7.21;72.48;102598.56;5081417;27;45275;-63
2021/12/19 03:18:16;;;;;;;;;25.50;17.25;;;;;7.13;72.58;102588.44;5099460;27;45276;-62
2021/12/19 03:20:42;;;;;;;;;17.50;14.50;;;;;7.12;72.72;102582.38;5064510;27;45615;-62
2021/12/19 03:23:08;;;;;;;;;22.00;19.25;;;;;7.11;72.79;102577.19;5098657;27;46190;-63
2021/12/19 03:25:34;;;;;;;;;19.00;12.25;;;;;7.10;72.74;102585.94;5080624;27;46298;-61
2021/12/19 03:27:59;;;;;;;;;24.25;18.25;;;;;7.09;72.96;102584.25;5098878;27;53394;-62
2021/12/19 03:30:25;;;;;;;;;20.25;16.00;;;;;7.07;73.09;102581.72;5099226;27;45257;-62
2021/12/19 03:32:50;;;;;;;;;23.75;17.00;;;;;7.08;73.17;102582.53;5099039;27;45325;-63
2021/12/19 03:35:16;;;;;;;;;20.25;14.25;;;;;7.07;73.01;102584.31;5098988;27;45296;-61
2021/12/19 03:37:42;;;;;;;;;24.25;18.00;;;;;7.08;73.08;102586.03;5064081;27;45399;-64
2021/12/19 03:40:09;;;;;;;;;19.50;17.75;;;;;7.08;72.99;102579.94;5099103;27;45336;-63
2021/12/19 03:42:45;;;;;;;;;23.25;17.75;;;;;7.06;73.08;102573.91;5098893;27;45512;-62
2021/12/19 03:45:12;;;;;;;;;17.75;14.00;;;;;7.05;72.92;102577.44;5080824;27;45794;-61
2021/12/19 03:47:38;;;;;;;;;19.25;14.25;;;;;7.05;72.95;102572.22;5080835;27;45310;-61
2021/12/19 03:50:04;;;;;;;;;25.75;19.00;;;;;7.03;72.84;102572.28;5098999;27;45660;-62
2021/12/19 03:52:30;;;;;;;;;20.00;16.25;;;;;7.03;73.13;102579.25;5080543;27;46725;-63
2021/12/19 03:54:56;;;;;;;;;24.50;18.00;;;;;7.02;73.24;102573.19;5098802;27;45297;-63
2021/12/19 03:57:21;;;;;;;;;24.75;14.25;;;;;7.03;73.11;102576.66;5098714;27;45406;-63
2021/12/19 03:59:48;;;;;;;;;19.25;16.25;;;;;7.02;73.19;102577.56;5097832;27;67221;-62
2021/12/19 04:02:21;;;;;;;;;19.75;15.50;;;;;7.01;73.14;102574.13;5098645;27;45732;-61
2021/12/19 04:04:46;;;;;;;;;16.75;15.00;;;;;7.03;73.17;102569.69;5098657;27;45414;-63
2021/12/19 04:07:12;;;;;;;;;17.25;14.00;;;;;7.02;73.07;102572.34;5079270;27;58575;-61
2021/12/19 04:09:37;;;;;;;;;19.00;12.25;;;;;7.01;73.10;102571.50;5097466;27;62697;-61
2021/12/19 04:12:03;;;;;;;;;12.25;11.00;;;;;7.02;73.21;102574.94;5098033;27;51136;-64
2021/12/19 04:14:28;;;;;;;;;16.50;11.25;;;;;7.01;73.13;102575.88;5080199;27;45323;-63
2021/12/19 04:16:54;;;;;;;;;15.50;14.50;;;;;7.01;73.08;102581.09;5097892;27;55479;-62
2021/12/19 04:19:20;;;;;;;;;15.25;13.75;;;;;6.96;73.20;102574.28;5098473;27;45432;-62
2021/12/19 04:21:46;;;;;;;;;20.00;14.00;;;;;6.95;73.36;102572.56;5098159;27;46102;-63
2021/12/19 04:24:11;;;;;;;;;16.25;13.25;;;;;6.95;73.33;102574.34;5098158;27;45296;-63
2021/12/19 04:26:37;;;;;;;;;15.00;13.50;;;;;6.95;73.53;102571.75;5097500;27;63086;-62
2021/12/19 04:29:02;;;;;;;;;16.50;12.50;;;;;6.95;73.54;102562.13;5098269;27;45304;-62
2021/12/19 04:31:27;;;;;;;;;11.50;9.75;;;;;6.96;73.46;102565.59;5098046;27;45425;-62
2021/12/19 04:33:53;;;;;;;;;13.25;10.50;;;;;6.97;73.41;102562.09;5097556;27;62262;-63
2021/12/19 04:36:26;;;;;;;;;16.00;11.00;;;;;6.96;73.59;102561.22;5079915;27;45704;-63
2021/12/19 04:41:49;;;;;;;;;15.00;9.00;;;;;6.97;73.28;102552.47;5097891;27;46086;-63
2021/12/19 04:52:30;;;;;;;;;11.50;8.25;;;;;6.94;73.26;102536.91;5097771;27;45441;-61
2021/12/19 04:55:14;;;;;;;;;15.25;9.25;;;;;6.93;73.36;102537.81;5082414;27;45359;-62
2021/12/19 04:57:49;;;;;;;;;9.50;9.25;;;;;6.94;73.48;102528.22;5097830;27;45428;-62
2021/12/19 05:00:19;;;;;;;;;12.50;9.00;;;;;6.93;73.48;102531.75;5097980;27;45273;-62
2021/12/19 05:16:14;;;;;;;;;15.75;10.75;;;;;6.91;73.46;102529.19;5034525;28;45929;-62
2021/12/19 05:18:41;;;;;;;;;12.00;9.00;;;;;6.93;72.97;102536.97;5054384;27;45328;-62
2021/12/19 05:21:28;;;;;;;;;14.25;10.25;;;;;6.91;73.19;102523.97;5096786;27;45338;-61
2021/12/19 05:26:21;;;;;;;;;14.50;10.75;;;;;6.90;72.88;102532.72;5079305;27;45261;-61
2021/12/19 05:28:48;;;;;;;;;13.00;9.25;;;;;6.87;73.00;102527.63;5096733;27;57784;-63
2021/12/19 05:31:14;;;;;;;;;9.50;8.25;;;;;6.87;73.06;102530.25;5097605;27;45229;-64
2021/12/19 05:33:39;;;;;;;;;12.00;8.75;;;;;6.87;72.84;102532.00;5097304;27;45332;-62
2021/12/19 05:46:26;;;;;;;;;9.50;7.00;;;;;6.81;72.84;102538.34;5097271;27;45861;-62
2021/12/19 05:48:51;;;;;;;;;11.00;7.00;;;;;6.78;72.96;102538.47;5077900;27;65942;-62
2021/12/19 05:51:16;;;;;;;;;11.50;6.25;;;;;6.76;73.05;102520.22;5097168;27;45314;-62
2021/12/19 05:53:42;;;;;;;;;12.75;8.75;;;;;6.75;73.17;102528.13;5095965;27;71760;-63
2021/12/19 05:56:07;;;;;;;;;9.50;6.25;;;;;6.75;73.23;102531.56;5095811;27;70653;-63
2021/12/19 05:58:33;;;;;;;;;11.50;9.00;;;;;6.73;73.42;102519.50;5097067;27;45425;-61
2021/12/19 06:00:58;;;;;;;;;12.00;7.00;;;;;6.73;73.45;102511.66;5097021;27;45339;-62
2021/12/19 06:03:23;;;;;;;;;14.50;9.75;;;;;6.73;73.56;102519.50;5095847;27;73122;-63
2021/12/19 06:05:49;;;;;;;;;10.25;6.25;;;;;6.75;73.50;102520.28;5097063;27;45306;-63
2021/12/19 06:08:14;;;;;;;;;10.00;9.00;;;;;6.73;73.20;102514.28;5095955;27;64810;-63
2021/12/19 06:10:39;;;;;;;;;7.75;7.75;;;;;6.73;73.13;102512.50;5096063;27;62189;-62
2021/12/19 06:13:05;;;;;;;;;6.25;5.75;;;;;6.72;72.97;102515.19;5096693;27;48251;-63
2021/12/19 06:15:30;;;;;;;;;11.75;8.50;;;;;6.70;73.19;102517.84;5096036;27;66126;-63
2021/12/19 06:17:56;;;;;;;;;15.25;8.75;;;;;6.70;73.02;102514.41;5096097;27;55928;-62
2021/12/19 06:20:21;;;;;;;;;6.75;5.25;;;;;6.69;73.00;102516.16;5096910;27;45175;-62
2021/12/19 06:22:47;;;;;;;;;6.50;5.00;;;;;6.66;73.00;102514.53;5096689;27;46143;-62
2021/12/19 06:25:12;;;;;;;;;13.00;9.75;;;;;6.64;73.16;102505.03;5096419;27;45204;-62
2021/12/19 06:27:37;;;;;;;;;8.50;4.00;;;;;6.63;73.02;102517.25;5078361;27;45324;-62
2021/12/19 06:30:04;;;;;;;;;13.00;8.75;;;;;6.61;73.04;102513.03;5078332;27;45527;-63
2021/12/19 06:32:30;;;;;;;;;7.00;7.00;;;;;6.61;73.05;102515.63;5097720;27;46251;-63
2021/12/19 06:34:55;;;;;;;;;9.00;6.25;;;;;6.61;73.12;102513.84;5100060;27;45346;-62
2021/12/19 06:37:21;;;;;;;;;8.50;5.50;;;;;6.59;73.03;102504.38;5099706;27;56014;-62
2021/12/19 06:39:46;;;;;;;;;9.75;6.50;;;;;6.59;72.93;102510.44;5099319;27;59342;-62
2021/12/19 06:42:12;;;;;;;;;10.75;7.50;;;;;6.56;73.08;102505.34;5099957;27;46081;-62
2021/12/19 06:44:37;;;;;;;;;5.50;5.00;;;;;6.55;73.28;102503.66;5099893;27;45389;-63
2021/12/19 06:47:03;;;;;;;;;12.00;7.00;;;;;6.52;73.16;102501.16;5100249;27;45461;-63
2021/12/19 06:49:28;;;;;;;;;9.50;7.00;;;;;6.51;73.49;102509.91;5081642;27;45466;-62
2021/12/19 06:51:54;;;;;;;;;7.50;7.50;;;;;6.52;73.23;102516.81;5080641;27;68682;-61
2021/12/19 06:54:19;;;;;;;;;8.25;7.25;;;;;6.51;73.39;102520.34;5099735;27;45248;-61
2021/12/19 06:56:45;;;;;;;;;16.75;8.50;;;;;6.50;73.26;102518.66;5081494;27;45289;-64
2021/12/19 06:59:10;;;;;;;;;11.00;8.00;;;;;6.49;73.47;102516.94;5098908;27;65096;-62
2021/12/19 07:01:36;;;;;;;;;5.50;4.25;;;;;6.49;73.45;102511.72;5081323;27;46725;-61
2021/12/19 07:04:02;;;;;;;;;14.75;8.75;;;;;6.49;73.34;102516.94;5099551;27;45255;-62
2021/12/19 07:06:27;;;;;;;;;14.25;9.25;;;;;6.47;73.61;102513.53;5081450;27;45382;-62
2021/12/19 07:08:52;;;;;;;;;11.75;10.00;;;;;6.51;73.61;102520.34;5098838;27;62736;-62
2021/12/19 07:11:18;;;;;;;;;13.75;8.25;;;;;6.52;73.48;102522.91;5080391;27;65378;-62
2021/12/19 07:13:43;;;;;;;;;11.75;10.25;;;;;6.52;73.41;102522.06;5099563;27;45351;-62
2021/12/19 07:16:09;;;;;;;;;14.00;10.75;;;;;6.51;73.59;102512.50;5080258;27;66375;-62
2021/12/19 07:18:36;;;;;;;;;15.00;8.00;;;;;6.51;73.49;102508.16;5099399;27;45236;-63
2021/12/19 07:21:03;;;;;;;;;10.00;8.75;;;;;6.50;73.44;102503.84;5081233;27;45373;-62
2021/12/19 07:23:28;;;;;;;;;10.25;8.25;;;;;6.49;73.38;102496.06;5099235;27;45783;-62
2021/12/19 07:25:53;;;;;;;;;10.00;8.00;;;;;6.49;73.41;102502.13;5079964;27;65941;-63
2021/12/19 07:28:19;;;;;;;;;10.50;7.75;;;;;6.49;73.59;102498.66;5098334;27;61761;-62
2021/12/19 07:30:44;;;;;;;;;10.75;7.25;;;;;6.48;73.33;102500.44;5097822;27;72966;-61
2021/12/19 07:33:10;;;;;;;;;9.00;7.50;;;;;6.49;73.29;102503.88;5099088;27;45368;-62
2021/12/19 07:35:41;;;;;;;;;15.00;9.00;;;;;6.50;72.88;102498.63;5064247;27;45415;-62
2021/12/19 07:38:08;;;;;;;;;9.00;9.00;;;;;6.48;73.05;102495.22;5081539;27;45442;-62
2021/12/19 07:40:38;;;;;;;;;14.00;9.50;;;;;6.47;72.72;102496.13;5098931;27;46282;-63
2021/12/19 07:43:04;;;;;;;;;13.75;9.00;;;;;6.49;72.84;102496.06;5081298;27;45818;-62
2021/12/19 07:45:30;;;;;;;;;8.50;8.50;;;;;6.47;72.74;102503.09;5079944;27;45328;-63
2021/12/19 07:47:56;;;;;;;;;9.25;7.75;;;;;6.46;72.66;102490.94;5080375;27;45367;-61
2021/12/19 07:50:22;;;;;;;;;10.00;7.75;;;;;6.46;72.83;102493.56;5080320;27;46420;-62
2021/12/19 07:52:47;;;;;;;;;10.75;7.25;;;;;6.45;72.95;102487.50;5098324;27;45730;-62
2021/12/19 07:55:12;;;;;;;;;9.75;9.00;;;;;6.44;72.99;102488.41;5098555;27;45505;-62
2021/12/19 07:57:38;;;;;;;;;11.75;9.75;;;;;6.45;73.03;102489.25;5080097;27;51520;-63
2021/12/19 08:00:04;;;;;;;;;11.00;8.25;;;;;6.47;73.06;102495.25;5098499;27;49399;-62
2021/12/19 08:02:29;;;;;;;;;11.75;10.50;;;;;6.47;73.04;102493.50;5098469;27;45370;-64
2021/12/19 08:04:55;;;;;;;;;8.00;7.00;;;;;6.49;73.26;102496.06;5098822;27;45693;-62
2021/12/19 08:07:23;;;;;;;;;16.25;10.25;;;;;6.48;73.27;102490.00;5079372;27;68803;-62
2021/12/19 08:12:26;;;;;;;;;9.50;8.50;;;;;6.51;73.36;102502.06;5098610;27;45384;-62
2021/12/19 08:14:52;;;;;;;;;14.00;11.00;;;;;6.53;73.15;102500.25;5098704;27;45884;-62
2021/12/19 08:17:21;;;;;;;;;15.25;9.00;;;;;6.55;73.16;102506.25;5080211;27;45554;-62
2021/12/19 08:19:47;;;;;;;;;16.25;10.25;;;;;6.55;72.98;102501.03;5098272;27;45535;-62
2021/12/19 08:22:14;;;;;;;;;9.25;9.00;;;;;6.56;73.17;102497.50;5098382;27;45236;-63
2021/12/19 08:24:39;;;;;;;;;12.50;9.75;;;;;6.59;73.12;102501.78;5096134;27;45354;-63
2021/12/19 08:27:05;;;;;;;;;16.00;8.50;;;;;6.58;73.18;102498.31;5060109;28;45389;-63
2021/12/19 08:29:30;;;;;;;;;12.00;10.25;;;;;6.60;72.96;102501.69;5061039;28;70741;-63
2021/12/19 08:31:56;;;;;;;;;11.25;10.00;;;;;6.60;73.08;102498.25;5064821;28;69106;-63
2021/12/19 08:34:22;;;;;;;;;13.75;9.75;;;;;6.61;72.96;102494.72;5035577;28;45915;-61
2021/12/19 08:36:47;;;;;;;;;10.50;9.50;;;;;6.60;73.07;102488.66;5048365;28;45379;-62
2021/12/19 08:39:17;;;;;;;;;12.00;10.00;;;;;6.63;73.02;102492.88;5032751;28;46163;-62
2021/12/19 08:41:43;;;;;;;;;11.50;9.50;;;;;6.62;73.08;102493.81;5006592;28;45785;-62
2021/12/19 08:44:09;;;;;;;;;14.25;10.75;;;;;6.61;73.03;102494.72;5006232;28;45305;-61
2021/12/19 08:46:35;;;;;;;;;15.50;8.25;;;;;6.62;72.98;102496.44;5056013;28;69134;-63
2021/12/19 08:49:04;;;;;;;;;15.50;9.75;;;;;6.61;72.83;102503.41;5038966;28;46404;-63
2021/12/19 08:51:31;;;;;;;;;12.25;8.00;;;;;6.61;72.84;102505.19;5038239;28;45376;-61
2021/12/19 08:53:57;;;;;;;;;15.25;11.75;;;;;6.61;72.81;102511.25;5055835;28;45451;-63
2021/12/19 08:56:22;;;;;;;;;15.75;10.00;;;;;6.62;72.86;102501.66;5055423;28;45406;-62
2021/12/19 08:58:48;;;;;;;;;11.75;8.75;;;;;6.60;72.75;102499.09;5055810;28;72403;-63
2021/12/19 09:01:13;;;;;;;;;9.50;8.00;;;;;6.59;72.68;102509.63;5037719;28;45447;-63
2021/12/19 09:03:38;;;;;;;;;10.25;9.00;;;;;6.59;72.97;102501.78;5054278;28;64797;-62
2021/12/19 09:06:04;;;;;;;;;13.00;9.00;;;;;6.58;72.90;102506.13;5054559;28;65381;-62
2021/12/19 09:08:29;;;;;;;;;11.00;8.75;;;;;6.57;72.96;102506.22;5055664;28;51736;-63
2021/12/19 09:10:55;;;;;;;;;11.75;10.25;;;;;6.58;72.81;102510.53;5037903;28;45534;-64
2021/12/19 09:13:21;;;;;;;;;11.75;8.25;;;;;6.57;73.01;102512.28;5021692;28;45777;-62
2021/12/19 09:15:46;;;;;;;;;14.75;11.75;;;;;6.56;73.16;102502.72;5056793;28;45430;-63
2021/12/19 09:18:11;;;;;;;;;10.25;8.75;;;;;6.56;72.98;102502.72;5038636;28;47494;-63
2021/12/19 09:20:37;;;;;;;;;14.75;10.75;;;;;6.55;73.12;102506.25;5037649;28;69455;-63
2021/12/19 09:23:02;;;;;;;;;9.50;9.50;;;;;6.57;73.00;102504.44;5056320;28;45811;-64
2021/12/19 09:25:28;;;;;;;;;8.00;8.00;;;;;6.58;72.95;102500.91;5021315;28;45250;-62
2021/12/19 09:27:53;;;;;;;;;10.75;9.00;;;;;6.58;72.86;102502.69;5055519;28;62675;-63
2021/12/19 09:30:18;;;;;;;;;11.25;8.00;;;;;6.58;72.88;102502.69;5037465;28;68449;-62
2021/12/19 09:32:44;;;;;;;;;6.75;5.75;;;;;6.58;72.87;102502.69;5038456;28;45505;-61
2021/12/19 09:35:10;;;;;;;;;12.00;7.75;;;;;6.57;72.57;102499.22;5056621;28;45268;-62
2021/12/19 09:37:35;;;;;;;;;9.00;7.25;;;;;6.56;72.54;102505.34;5056377;28;46182;-63
2021/12/19 09:40:05;;;;;;;;;9.50;8.25;;;;;6.57;72.62;102503.59;5056174;28;48789;-62
2021/12/19 09:42:34;;;;;;;;;12.00;8.00;;;;;6.56;72.40;102507.97;5056520;28;45415;-63
2021/12/19 09:45:01;;;;;;;;;8.25;5.75;;;;;6.55;72.46;102503.66;5056545;28;45216;-62
2021/12/19 09:47:26;;;;;;;;;11.25;8.50;;;;;6.55;72.65;102501.03;5038459;28;45361;-63
2021/12/19 09:49:52;;;;;;;;;8.50;8.00;;;;;6.56;72.72;102501.91;5056154;28;45378;-62
2021/12/19 09:52:17;;;;;;;;;11.50;8.25;;;;;6.57;72.73;102508.81;5020865;28;69093;-63
2021/12/19 09:54:43;;;;;;;;;15.25;11.75;;;;;6.58;72.74;102503.53;5055771;28;49076;-63
2021/12/19 09:57:08;;;;;;;;;15.25;8.00;;;;;6.60;72.82;102499.09;5021506;28;46012;-62
2021/12/19 09:59:33;;;;;;;;;12.75;10.50;;;;;6.62;72.87;102499.88;5056176;28;45321;-62
2021/12/19 10:02:00;;;;;;;;;17.00;11.00;;;;;6.63;72.82;102493.75;5055405;28;62297;-62
2021/12/19 10:04:41;;;;;;;;;13.50;11.75;;;;;6.65;72.66;102491.91;5056167;28;45273;-62
2021/12/19 10:07:14;;;;;;;;;13.25;11.75;;;;;6.65;72.51;102485.84;5057033;28;46634;-63
2021/12/19 10:10:10;;;;;;;;;17.50;12.75;;;;;6.65;72.48;102484.09;5059550;28;45260;-64
2021/12/19 10:15:13;;;;;;;;;15.00;11.00;;;;;6.67;72.51;102476.16;5042475;28;45364;-62
2021/12/19 10:17:39;;;;;;;;;15.50;12.00;;;;;6.70;72.64;102480.44;5024955;28;45524;-62
2021/12/19 10:20:12;;;;;;;;;17.50;16.00;;;;;6.70;72.33;102470.00;5041329;28;45439;-63
2021/12/19 10:22:45;;;;;;;;;16.25;14.50;;;;;6.71;72.67;102474.31;5041458;28;45210;-62
2021/12/19 10:25:11;;;;;;;;;20.75;11.75;;;;;6.73;72.58;102465.47;5059397;28;45377;-63
2021/12/19 10:27:38;;;;;;;;;18.75;16.75;;;;;6.74;72.34;102474.19;5059239;28;46242;-62
2021/12/19 10:30:09;;;;;;;;;20.50;15.75;;;;;6.75;72.19;102465.44;5059028;28;45816;-61
2021/12/19 10:32:34;;;;;;;;;16.00;14.00;;;;;6.77;71.91;102474.06;5059456;28;45324;-62
2021/12/19 10:35:13;;;;;;;;;19.50;15.25;;;;;6.79;71.60;102477.44;5059211;28;45167;-62
2021/12/19 10:37:39;;;;;;;;;17.75;13.25;;;;;6.80;71.51;102481.75;5058994;28;47008;-62
2021/12/19 10:40:05;;;;;;;;;12.50;11.00;;;;;6.80;71.02;102474.75;5058917;28;45496;-62
2021/12/19 10:42:35;;;;;;;;;15.50;10.75;;;;;6.79;70.95;102467.84;5059277;28;45279;-64
2021/12/19 10:47:44;;;;;;;;;15.50;12.75;;;;;6.79;71.13;102462.63;5059130;28;45300;-63
2021/12/19 10:50:10;;;;;;;;;19.50;17.25;;;;;6.78;71.07;102454.84;5058567;28;48843;-63
2021/12/19 10:52:37;;;;;;;;;23.00;18.00;;;;;6.77;71.20;102459.22;5058150;28;64710;-62
2021/12/19 10:55:05;;;;;;;;;14.25;12.50;;;;;6.78;71.32;102452.25;5041147;28;45208;-61
2021/12/19 10:57:36;;;;;;;;;23.00;16.25;;;;;6.77;71.16;102447.94;5040327;28;46098;-62
2021/12/19 11:00:05;;;;;;;;;17.25;15.50;;;;;6.77;71.21;102445.31;5058412;28;45428;-62
2021/12/19 11:02:38;;;;;;;;;24.75;23.75;;;;;6.78;71.21;102441.78;5057774;28;45369;-62
2021/12/19 11:05:04;;;;;;;;;21.50;17.00;;;;;6.78;70.88;102433.94;5024163;28;45186;-63
2021/12/19 11:07:29;;;;;;;;;17.75;15.00;;;;;6.78;70.80;102428.72;5057093;28;46289;-62
2021/12/19 11:09:55;;;;;;;;;20.50;16.75;;;;;6.78;71.01;102421.72;5039477;28;69471;-63
2021/12/19 11:12:20;;;;;;;;;19.25;12.00;;;;;6.79;71.15;102425.19;5040750;28;45489;-62
2021/12/19 11:14:47;;;;;;;;;20.50;17.25;;;;;6.81;71.07;102429.44;5057169;28;65564;-63
2021/12/19 11:17:23;;;;;;;;;25.50;19.50;;;;;6.82;71.07;102428.53;5040186;28;46479;-63
2021/12/19 11:19:50;;;;;;;;;29.00;24.25;;;;;6.85;71.04;102431.91;5057063;28;45237;-63
2021/12/19 11:22:23;;;;;;;;;23.25;20.25;;;;;6.88;70.89;102423.94;5040414;28;45308;-63
2021/12/19 11:24:49;;;;;;;;;24.25;20.75;;;;;6.89;71.04;102416.03;5058441;28;45462;-62
2021/12/19 11:27:15;;;;;;;;;18.75;16.50;;;;;6.90;71.13;102420.34;5058087;28;45393;-61
2021/12/19 11:29:42;;;;;;;;;22.75;15.75;;;;;6.91;71.09;102406.38;5023788;28;45238;-61
2021/12/19 11:32:09;;;;;;;;;23.50;16.00;;;;;6.93;71.18;102398.47;5040442;28;45333;-63
2021/12/19 11:34:56;;;;;;;;;21.00;17.25;;;;;6.94;71.13;102387.09;5039757;28;45224;-62
2021/12/19 11:37:25;;;;;;;;;30.50;24.25;;;;;6.95;71.22;102389.63;5039404;28;47654;-62
2021/12/19 11:39:52;;;;;;;;;17.00;12.25;;;;;6.97;71.24;102390.41;5039827;28;45446;-62
2021/12/19 11:42:21;;;;;;;;;19.25;13.75;;;;;7.00;71.42;102385.97;5039469;28;45395;-61
2021/12/19 11:45:03;;;;;;;;;19.00;12.50;;;;;7.03;70.87;102393.69;5039572;28;45425;-63
2021/12/19 11:47:44;;;;;;;;;20.00;16.25;;;;;7.04;70.98;102392.78;5057791;28;46426;-62
2021/12/19 11:50:23;;;;;;;;;23.00;17.50;;;;;7.05;70.66;102379.66;5057466;28;45440;-62
2021/12/19 11:52:50;;;;;;;;;17.50;14.50;;;;;7.05;70.76;102379.66;5057883;28;45237;-63
2021/12/19 11:55:18;;;;;;;;;25.00;15.75;;;;;7.06;70.78;102381.34;5039813;28;45659;-62
2021/12/19 11:58:06;;;;;;;;;21.50;16.50;;;;;7.08;70.95;102368.19;5057451;28;45623;-62
2021/12/19 12:00:36;;;;;;;;;18.25;17.00;;;;;7.09;70.92;102365.53;5057575;28;45860;-63
2021/12/19 12:03:14;;;;;;;;;21.25;17.00;;;;;7.10;70.81;102361.13;5057627;28;45327;-62
2021/12/19 12:05:43;;;;;;;;;23.25;17.25;;;;;7.13;70.98;102361.00;5038736;28;45319;-64
2021/12/19 12:08:09;;;;;;;;;20.25;16.25;;;;;7.14;71.05;102352.25;5039429;28;45388;-64
2021/12/19 12:10:50;;;;;;;;;20.25;14.75;;;;;7.13;70.79;102351.41;5057453;28;45316;-62
2021/12/19 12:13:27;;;;;;;;;19.25;15.00;;;;;7.12;70.99;102341.88;5057418;28;45424;-63
2021/12/19 12:16:01;;;;;;;;;25.00;16.75;;;;;7.14;70.79;102333.94;5057203;28;45192;-63
2021/12/19 12:18:35;;;;;;;;;18.75;15.75;;;;;7.15;71.14;102327.81;5040348;28;46459;-63
2021/12/19 12:21:28;;;;;;;;;18.50;16.75;;;;;7.18;71.22;102332.88;5005927;28;45287;-62
2021/12/19 12:23:58;;;;;;;;;16.00;13.75;;;;;7.20;71.15;102327.56;5057543;28;45408;-62
2021/12/19 12:26:29;;;;;;;;;16.75;13.50;;;;;7.20;71.04;102325.81;5056542;28;45451;-61
2021/12/19 12:28:54;;;;;;;;;22.75;15.75;;;;;7.20;70.93;102323.22;5056924;28;46436;-62
2021/12/19 12:31:20;;;;;;;;;16.25;12.50;;;;;7.23;70.88;102322.22;5038964;28;45301;-63